Terminal Aerodrome Forecast
Issued by NWS Indianapolis, IN

Home | Current Version | Previous Version | Text Only | Print | Product List | Glossary On
Versions: 1 2 3 4 5 6 7 8 9 10 11 12 13 14 15 16 17 18 19 20 21 22 23 24 25 26 27 28 29
487
FTUS43 KIND 261808 AAA
TAFIND
TAF AMD
KIND 261808Z 2618/2724 VRB05KT P6SM SCT030 BKN040
     FM262000 VRB05KT P6SM VCTS SCT035CB BKN150
     FM270100 06005KT P6SM BKN080
     FM270900 11004KT P6SM VCSH BKN060=

USA.gov is the U.S. government's official web portal to all federal, state and local government web resources and services.